Time;durP1;ratioP1;P1;durP2;ratioP2;P2;SDS_P1;SDS_P2;PMS_P1;PMS_P2;Temp;Humidity;BMP_temperature;BMP_pressure;BME280_temperature;BME280_humidity;BME280_pressure;Samples;Min_cycle;Max_cycle;Signal;HPM_P1;HPM_P2
2023/03/25 00:01:00;;;;;;;1.30;0.63;;;10.00;99.90;;;;;;5071018;28;20036;-73
2023/03/25 00:03:28;;;;;;;6.28;1.20;;;10.00;99.90;;;;;;5072328;28;20028;-73
2023/03/25 00:05:56;;;;;;;5.78;0.80;;;9.90;99.90;;;;;;5072400;28;20369;-74
2023/03/25 00:08:25;;;;;;;2.45;0.57;;;9.90;99.90;;;;;;5072386;28;20029;-73
2023/03/25 00:10:56;;;;;;;1.27;0.50;;;9.80;99.90;;;;;;5071235;28;20076;-73
2023/03/25 00:13:22;;;;;;;3.60;1.02;;;9.80;99.90;;;;;;5072027;28;20036;-73
2023/03/25 00:15:52;;;;;;;1.27;0.75;;;9.70;99.90;;;;;;5072156;28;20029;-74
2023/03/25 00:18:19;;;;;;;2.55;0.50;;;9.70;99.90;;;;;;5072392;28;20481;-73
2023/03/25 00:20:49;;;;;;;1.88;0.90;;;9.70;99.90;;;;;;5072385;28;20037;-73
2023/03/25 00:23:16;;;;;;;1.48;0.93;;;9.60;99.90;;;;;;5072458;28;20024;-73
2023/03/25 00:25:43;;;;;;;10.90;2.08;;;9.60;99.90;;;;;;5070929;28;20040;-74
2023/03/25 00:28:13;;;;;;;2.75;1.15;;;9.50;99.90;;;;;;5072186;28;20079;-74
2023/03/25 00:30:40;;;;;;;6.13;1.38;;;9.40;99.90;;;;;;5070640;28;20036;-73
2023/03/25 00:33:06;;;;;;;4.47;1.05;;;9.40;99.90;;;;;;5072230;28;20036;-74
2023/03/25 00:35:32;;;;;;;1.40;0.55;;;9.40;99.90;;;;;;5070854;28;20033;-73
2023/03/25 00:38:01;;;;;;;11.07;0.43;;;9.30;99.90;;;;;;5071943;28;20125;-73
2023/03/25 00:40:33;;;;;;;0.50;0.50;;;9.30;99.90;;;;;;5071868;28;20114;-74
2023/03/25 00:43:00;;;;;;;0.70;0.45;;;9.20;99.90;;;;;;5071933;28;20028;-73
2023/03/25 00:45:26;;;;;;;0.35;0.35;;;9.20;99.90;;;;;;5072246;28;20045;-73
2023/03/25 00:47:52;;;;;;;0.10;0.10;;;9.30;99.90;;;;;;5070572;28;20024;-74
2023/03/25 00:50:18;;;;;;;0.40;0.20;;;9.30;99.90;;;;;;5071036;28;20455;-72
2023/03/25 00:52:44;;;;;;;1.13;0.77;;;9.40;99.90;;;;;;5070476;28;20025;-73
2023/03/25 00:55:09;;;;;;;3.83;0.55;;;9.30;99.90;;;;;;5072201;28;20029;-73
2023/03/25 00:57:35;;;;;;;5.15;1.20;;;9.20;99.90;;;;;;5071675;28;20029;-73
2023/03/25 01:00:10;;;;;;;5.22;0.82;;;9.10;99.90;;;;;;5070751;28;20128;-73
2023/03/25 01:02:38;;;;;;;1.35;0.57;;;9.10;99.90;;;;;;5070488;28;20035;-72
2023/03/25 01:05:04;;;;;;;4.50;0.80;;;9.20;99.90;;;;;;5070543;28;20119;-71
2023/03/25 01:07:30;;;;;;;0.13;0.13;;;9.20;99.90;;;;;;5071861;28;20043;-73
2023/03/25 01:09:57;;;;;;;8.82;1.23;;;9.30;99.90;;;;;;5072018;28;20036;-73
2023/03/25 01:12:25;;;;;;;2.38;1.17;;;9.20;99.90;;;;;;5073128;28;20020;-73
2023/03/25 01:14:51;;;;;;;0.63;0.43;;;9.20;99.90;;;;;;5074310;28;20514;-73
2023/03/25 01:17:17;;;;;;;3.28;1.02;;;9.20;99.90;;;;;;5073835;28;20031;-72
2023/03/25 01:19:42;;;;;;;6.22;1.48;;;9.20;99.90;;;;;;5075378;28;20115;-74
2023/03/25 01:22:08;;;;;;;0.57;0.40;;;9.20;99.90;;;;;;5057298;28;20024;-74
2023/03/25 01:24:34;;;;;;;0.75;0.40;;;9.20;99.90;;;;;;5075532;28;20074;-71
2023/03/25 01:27:00;;;;;;;0.95;0.28;;;9.20;99.90;;;;;;5073580;28;20037;-71
2023/03/25 01:29:28;;;;;;;8.88;1.80;;;9.20;99.90;;;;;;5075011;28;20537;-71
2023/03/25 01:31:54;;;;;;;2.40;1.10;;;9.10;99.90;;;;;;5074204;28;20366;-70
2023/03/25 01:34:20;;;;;;;5.75;1.08;;;9.20;99.90;;;;;;5075067;28;20111;-70
2023/03/25 01:36:47;;;;;;;2.67;0.68;;;9.10;99.90;;;;;;5073866;28;20108;-70
2023/03/25 01:39:15;;;;;;;10.05;0.82;;;9.10;99.90;;;;;;5074601;28;20055;-70
2023/03/25 01:41:42;;;;;;;3.72;0.80;;;9.20;99.90;;;;;;5074726;28;20510;-70
2023/03/25 01:44:18;;;;;;;2.42;0.93;;;9.10;99.90;;;;;;5074522;28;20059;-70
2023/03/25 01:46:45;;;;;;;20.45;3.45;;;9.20;99.90;;;;;;5073459;28;20040;-70
2023/03/25 01:49:20;;;;;;;1.80;0.88;;;9.10;99.90;;;;;;5073103;28;20059;-70
2023/03/25 01:51:48;;;;;;;0.32;0.28;;;9.20;99.90;;;;;;5074746;28;20043;-71
2023/03/25 01:54:16;;;;;;;21.08;2.95;;;9.10;99.90;;;;;;5074249;28;20033;-70
2023/03/25 01:56:46;;;;;;;0.73;0.73;;;9.10;99.90;;;;;;5074538;28;20031;-70
2023/03/25 01:59:14;;;;;;;7.32;0.45;;;9.10;99.90;;;;;;5073318;28;20029;-73
2023/03/25 02:01:44;;;;;;;4.82;1.15;;;9.10;99.90;;;;;;5073468;28;20017;-73
2023/03/25 02:04:12;;;;;;;10.77;2.17;;;9.10;99.90;;;;;;5073032;28;20064;-73
2023/03/25 02:06:38;;;;;;;2.28;1.75;;;9.10;99.90;;;;;;5073024;28;20032;-74
2023/03/25 02:09:05;;;;;;;2.38;0.88;;;9.10;99.90;;;;;;5074712;28;20024;-73
2023/03/25 02:11:32;;;;;;;4.22;0.30;;;9.20;99.90;;;;;;5072513;28;20127;-73
2023/03/25 02:14:04;;;;;;;6.78;1.13;;;9.20;99.90;;;;;;5073020;28;20086;-73
2023/03/25 02:16:56;;;;;;;1.25;0.50;;;9.20;99.90;;;;;;5074170;28;20119;-73
2023/03/25 02:19:50;;;;;;;5.00;1.20;;;9.20;99.90;;;;;;5072825;28;20063;-72
2023/03/25 02:22:36;;;;;;;5.70;1.58;;;9.10;99.90;;;;;;5073851;28;20021;-74
2023/03/25 02:25:26;;;;;;;6.65;1.52;;;9.10;99.90;;;;;;5055762;28;20040;-73
2023/03/25 02:28:24;;;;;;;1.40;0.17;;;9.10;99.90;;;;;;5061341;28;20036;-73
2023/03/25 02:31:27;;;;;;;12.85;1.85;;;9.20;99.90;;;;;;5106063;28;20028;-73
2023/03/25 02:33:59;;;;;;;2.13;0.82;;;9.10;99.90;;;;;;5090737;28;20078;-73
2023/03/25 02:37:12;;;;;;;4.60;1.27;;;9.10;99.90;;;;;;5078361;28;20028;-74
2023/03/25 02:39:58;;;;;;;11.60;1.83;;;9.10;99.90;;;;;;5092314;28;20064;-73
2023/03/25 02:42:38;;;;;;;7.95;1.05;;;9.20;99.90;;;;;;5075894;28;20028;-74
2023/03/25 02:45:14;;;;;;;15.73;2.50;;;9.20;99.90;;;;;;5092428;28;20031;-73
2023/03/25 02:47:46;;;;;;;13.25;1.90;;;9.30;99.90;;;;;;5092497;28;20032;-74
2023/03/25 02:50:17;;;;;;;;;;;9.40;99.90;;;;;;5093010;28;20077;-72
2023/03/25 02:52:49;;;;;;;5.95;0.55;;;9.30;99.90;;;;;;5092489;28;19908;-73
2023/03/25 02:55:18;;;;;;;1.17;0.40;;;9.20;99.90;;;;;;5092256;28;20039;-73
2023/03/25 02:57:47;;;;;;;7.60;1.83;;;9.10;99.90;;;;;;5092255;28;20034;-73
2023/03/25 03:00:19;;;;;;;4.85;1.02;;;9.10;99.90;;;;;;5092395;28;20028;-73
2023/03/25 03:02:58;;;;;;;13.00;2.33;;;9.10;99.90;;;;;;5093456;28;20024;-73
2023/03/25 03:05:40;;;;;;;7.35;0.98;;;9.10;99.90;;;;;;5092009;28;20122;-73
2023/03/25 03:08:22;;;;;;;5.25;1.23;;;9.10;99.90;;;;;;5093078;28;20043;-73
2023/03/25 03:11:12;;;;;;;20.03;0.77;;;9.00;99.90;;;;;;5093058;28;20032;-73
2023/03/25 03:13:59;;;;;;;3.92;0.63;;;8.80;99.90;;;;;;5093475;28;20042;-73
2023/03/25 03:16:34;;;;;;;6.95;1.35;;;8.80;99.90;;;;;;5093163;28;20533;-74
2023/03/25 03:19:45;;;;;;;3.35;1.20;;;8.70;99.90;;;;;;5093376;28;20059;-73
2023/03/25 03:22:16;;;;;;;2.30;0.57;;;8.70;99.90;;;;;;5054120;28;20051;-73
2023/03/25 03:25:10;;;;;;;3.55;0.55;;;8.70;99.90;;;;;;5070290;28;20039;-73
2023/03/25 03:27:55;;;;;;;5.25;1.40;;;8.70;99.90;;;;;;5087596;28;20067;-70
2023/03/25 03:30:38;;;;;;;5.97;1.13;;;8.70;99.90;;;;;;5092951;28;20046;-74
2023/03/25 03:33:24;;;;;;;12.48;2.50;;;8.70;99.90;;;;;;5092720;28;20070;-73
2023/03/25 03:35:56;;;;;;;5.97;1.50;;;8.70;99.90;;;;;;5092911;28;20092;-73
2023/03/25 03:38:25;;;;;;;4.50;1.33;;;8.70;99.90;;;;;;5092384;28;20078;-73
2023/03/25 03:40:55;;;;;;;3.42;1.20;;;8.60;99.90;;;;;;5092897;28;20042;-73
2023/03/25 03:43:30;;;;;;;4.60;1.42;;;8.60;99.90;;;;;;5092719;28;20040;-73
2023/03/25 03:46:01;;;;;;;5.03;1.00;;;8.50;99.90;;;;;;5092872;28;20043;-73
2023/03/25 03:48:34;;;;;;;2.17;1.37;;;8.50;99.90;;;;;;5092653;28;20032;-73
2023/03/25 03:51:12;;;;;;;0.90;0.40;;;8.50;99.90;;;;;;5093017;28;20380;-72
2023/03/25 03:53:50;;;;;;;2.15;0.88;;;8.50;99.90;;;;;;5082861;28;20036;-73
2023/03/25 03:56:24;;;;;;;14.40;1.65;;;8.60;99.90;;;;;;5092902;28;20089;-72
2023/03/25 03:58:53;;;;;;;3.17;0.70;;;8.60;99.90;;;;;;5092878;28;20138;-73
2023/03/25 04:01:29;;;;;;;7.65;1.73;;;8.60;99.90;;;;;;5092759;28;20032;-73
2023/03/25 04:04:09;;;;;;;4.32;1.52;;;8.60;99.90;;;;;;5091705;28;20062;-71
2023/03/25 04:06:47;;;;;;;4.45;0.98;;;8.60;99.90;;;;;;5092233;28;20044;-71
2023/03/25 04:09:39;;;;;;;2.20;0.75;;;8.70;99.90;;;;;;5091449;28;20406;-71
2023/03/25 04:12:16;;;;;;;6.97;1.00;;;8.80;99.90;;;;;;5092733;28;20544;-71
2023/03/25 04:14:43;;;;;;;7.93;1.48;;;8.70;99.90;;;;;;5092680;28;20032;-71
2023/03/25 04:17:09;;;;;;;3.63;1.38;;;8.70;99.90;;;;;;5092586;28;20067;-71
2023/03/25 04:19:35;;;;;;;1.20;0.75;;;8.70;99.90;;;;;;5092414;28;20017;-71
2023/03/25 04:22:02;;;;;;;2.72;1.60;;;8.80;99.90;;;;;;5092257;28;20472;-71
2023/03/25 04:24:30;;;;;;;0.63;0.20;;;8.90;99.90;;;;;;5092465;28;20020;-71
2023/03/25 04:26:58;;;;;;;4.18;1.00;;;8.80;99.90;;;;;;5092526;28;20061;-70
2023/03/25 04:29:24;;;;;;;8.88;1.48;;;8.80;99.90;;;;;;5092247;28;20432;-71
2023/03/25 04:31:53;;;;;;;6.05;2.03;;;8.80;99.90;;;;;;5092409;28;20492;-71
2023/03/25 04:34:19;;;;;;;10.15;1.80;;;8.90;99.90;;;;;;5092397;28;20024;-70
2023/03/25 04:36:48;;;;;;;12.48;1.17;;;8.80;99.90;;;;;;5091964;28;20491;-70
2023/03/25 04:39:21;;;;;;;0.60;0.20;;;8.80;99.90;;;;;;5091078;28;20028;-70
2023/03/25 04:41:48;;;;;;;2.42;0.80;;;8.80;99.90;;;;;;5092205;28;20064;-71
2023/03/25 04:44:19;;;;;;;5.10;1.17;;;8.80;99.90;;;;;;5092389;28;20052;-70
2023/03/25 04:46:45;;;;;;;11.52;2.78;;;8.90;99.90;;;;;;5087929;28;20113;-71
2023/03/25 04:49:20;;;;;;;8.20;1.90;;;8.80;99.90;;;;;;5096178;28;20790;-71
2023/03/25 04:51:50;;;;;;;8.35;1.63;;;8.90;99.90;;;;;;5095604;28;20044;-71
2023/03/25 04:54:20;;;;;;;9.75;1.45;;;8.90;99.90;;;;;;5096096;28;20537;-70
2023/03/25 04:56:50;;;;;;;5.03;1.08;;;9.00;99.90;;;;;;5094863;28;20020;-71
2023/03/25 04:59:17;;;;;;;6.97;0.30;;;9.00;99.90;;;;;;5095998;28;20028;-70
2023/03/25 05:01:44;;;;;;;5.55;0.60;;;8.90;99.90;;;;;;5095767;28;20438;-71
2023/03/25 05:04:12;;;;;;;4.20;0.63;;;8.90;99.90;;;;;;5095411;28;20468;-71
2023/03/25 05:06:43;;;;;;;19.30;1.77;;;8.90;99.90;;;;;;5096201;28;20434;-70
2023/03/25 05:09:11;;;;;;;5.13;0.70;;;8.90;99.90;;;;;;5095620;28;20024;-71
2023/03/25 05:11:38;;;;;;;9.98;1.70;;;9.00;99.90;;;;;;5095749;28;20067;-70
2023/03/25 05:14:05;;;;;;;10.23;1.35;;;8.90;99.90;;;;;;5095392;28;20020;-70
2023/03/25 05:16:32;;;;;;;1.13;0.47;;;8.90;99.90;;;;;;5095720;28;20661;-73
2023/03/25 05:18:57;;;;;;;11.13;1.70;;;9.00;99.90;;;;;;5094834;28;20051;-72
2023/03/25 05:21:23;;;;;;;1.83;1.38;;;9.00;99.90;;;;;;5095714;28;20079;-73
2023/03/25 05:23:50;;;;;;;2.22;0.63;;;9.00;99.90;;;;;;5095394;28;20038;-71
2023/03/25 05:26:16;;;;;;;4.43;1.23;;;9.00;99.90;;;;;;5077197;28;20028;-72
2023/03/25 05:28:41;;;;;;;4.38;0.70;;;8.90;99.90;;;;;;5095273;28;20036;-72
2023/03/25 05:31:07;;;;;;;7.22;0.85;;;8.80;99.90;;;;;;5095319;28;20083;-71
2023/03/25 05:33:43;;;;;;;4.47;1.20;;;8.80;99.90;;;;;;5094672;28;20099;-72
2023/03/25 05:36:12;;;;;;;1.55;1.02;;;8.80;99.90;;;;;;5095314;28;20039;-71
2023/03/25 05:38:43;;;;;;;7.55;1.33;;;8.90;99.90;;;;;;5094772;28;20024;-72
2023/03/25 05:41:15;;;;;;;6.53;1.50;;;8.90;99.90;;;;;;5095252;28;20036;-72
2023/03/25 05:43:49;;;;;;;2.47;0.43;;;8.90;99.90;;;;;;5094638;28;20433;-71
2023/03/25 05:46:18;;;;;;;6.35;0.75;;;8.90;99.90;;;;;;5094649;28;20539;-73
2023/03/25 05:48:45;;;;;;;3.20;0.80;;;9.00;99.90;;;;;;5092867;28;20444;-72
2023/03/25 05:51:14;;;;;;;9.43;1.77;;;9.00;99.90;;;;;;5094651;28;20081;-72
2023/03/25 05:53:42;;;;;;;2.05;0.68;;;9.00;99.90;;;;;;5093985;28;20043;-71
2023/03/25 05:56:10;;;;;;;8.80;1.35;;;9.00;99.90;;;;;;5094531;28;20396;-72
2023/03/25 05:58:36;;;;;;;4.38;1.20;;;9.00;99.90;;;;;;5094561;28;20533;-73
2023/03/25 06:01:03;;;;;;;19.17;1.67;;;9.00;99.90;;;;;;5094804;28;20028;-73
2023/03/25 06:03:29;;;;;;;3.22;1.00;;;9.00;99.90;;;;;;5090279;28;20039;-73
2023/03/25 06:05:55;;;;;;;7.22;0.95;;;9.00;99.90;;;;;;5094362;28;20094;-73
2023/03/25 06:08:25;;;;;;;12.68;2.22;;;9.00;99.90;;;;;;5094520;28;20032;-72
2023/03/25 06:11:00;;;;;;;10.07;1.48;;;9.00;99.90;;;;;;5094522;28;20038;-71
2023/03/25 06:13:26;;;;;;;12.07;1.10;;;9.00;99.90;;;;;;5094485;28;20028;-73
2023/03/25 06:15:56;;;;;;;17.23;1.67;;;9.10;99.90;;;;;;5094307;28;20134;-74
2023/03/25 06:18:24;;;;;;;4.38;0.52;;;9.10;99.90;;;;;;5094213;28;20024;-71
2023/03/25 06:20:56;;;;;;;1.85;0.55;;;9.10;99.90;;;;;;5094352;28;20020;-73
2023/03/25 06:23:23;;;;;;;18.20;2.28;;;9.20;99.90;;;;;;5094340;28;20035;-73
2023/03/25 06:25:50;;;;;;;29.30;4.43;;;9.10;99.90;;;;;;5094143;28;20020;-72
2023/03/25 06:28:20;;;;;;;11.25;1.55;;;9.20;99.90;;;;;;5094348;28;20032;-73
2023/03/25 06:30:47;;;;;;;2.55;1.40;;;9.20;99.90;;;;;;5093998;28;20028;-73
2023/03/25 06:33:14;;;;;;;11.05;1.25;;;9.20;99.90;;;;;;5093859;28;20024;-73
2023/03/25 06:35:44;;;;;;;0.70;0.57;;;9.30;99.90;;;;;;5092683;28;20038;-71
2023/03/25 06:38:10;;;;;;;10.13;2.47;;;9.30;99.90;;;;;;5093792;28;20488;-73
2023/03/25 06:40:51;;;;;;;0.32;0.13;;;9.30;99.90;;;;;;5092746;28;20020;-73
2023/03/25 06:43:17;;;;;;;8.68;2.67;;;9.40;99.90;;;;;;5092841;28;20369;-70
2023/03/25 06:46:01;;;;;;;9.70;3.00;;;9.40;99.90;;;;;;5093628;28;20101;-70
2023/03/25 06:48:58;;;;;;;3.83;0.43;;;9.40;99.90;;;;;;5093324;28;20556;-71
2023/03/25 06:51:24;;;;;;;11.50;2.25;;;9.40;99.90;;;;;;5069824;28;20144;-70
2023/03/25 06:53:50;;;;;;;16.42;2.42;;;9.40;99.90;;;;;;5072666;28;20116;-71
2023/03/25 06:56:16;;;;;;;7.93;2.42;;;9.40;99.90;;;;;;5081746;28;20116;-70
2023/03/25 06:58:42;;;;;;;12.85;3.42;;;9.40;99.90;;;;;;5077628;28;20035;-70
2023/03/25 07:01:08;;;;;;;5.90;2.25;;;9.30;99.90;;;;;;5072424;28;20512;-70
2023/03/25 07:03:35;;;;;;;7.65;1.45;;;9.30;99.90;;;;;;5074358;28;20162;-71
2023/03/25 07:06:02;;;;;;;15.35;2.47;;;9.30;99.90;;;;;;5084010;28;20046;-71
2023/03/25 07:08:28;;;;;;;1.17;0.52;;;9.20;99.90;;;;;;5078517;28;20024;-71
2023/03/25 07:11:00;;;;;;;6.03;2.22;;;9.30;99.90;;;;;;5078717;28;20024;-70
2023/03/25 07:13:26;;;;;;;10.40;1.67;;;9.30;99.90;;;;;;5079834;28;20036;-71
2023/03/25 07:15:54;;;;;;;0.13;0.13;;;9.40;99.90;;;;;;5074828;28;20104;-71
2023/03/25 07:18:20;;;;;;;5.82;1.00;;;9.30;99.90;;;;;;5084820;28;20020;-71
2023/03/25 07:20:45;;;;;;;2.47;0.73;;;9.30;99.90;;;;;;5074523;28;20366;-70
2023/03/25 07:23:11;;;;;;;11.30;1.55;;;9.30;99.90;;;;;;5073438;28;20059;-70
2023/03/25 07:25:37;;;;;;;8.57;1.75;;;9.30;99.90;;;;;;5074891;28;20084;-70
2023/03/25 07:28:02;;;;;;;13.23;2.90;;;9.40;99.90;;;;;;5075608;28;20472;-71
2023/03/25 07:30:31;;;;;;;10.27;0.98;;;9.40;99.90;;;;;;5067815;28;20028;-71
2023/03/25 07:32:57;;;;;;;13.73;2.70;;;9.40;99.90;;;;;;5074915;28;20108;-71
2023/03/25 07:35:23;;;;;;;27.88;5.22;;;9.50;99.90;;;;;;5072740;28;20039;-71
2023/03/25 07:37:49;;;;;;;21.25;1.35;;;9.50;99.90;;;;;;5085046;28;20028;-71
2023/03/25 07:40:15;;;;;;;6.45;2.08;;;9.50;99.90;;;;;;5091912;28;20028;-70
2023/03/25 07:42:40;;;;;;;7.82;3.30;;;9.60;99.90;;;;;;5092391;28;20110;-70
2023/03/25 07:45:20;;;;;;;22.42;4.07;;;9.70;99.90;;;;;;5090353;28;20071;-70
2023/03/25 07:47:49;;;;;;;1.05;0.82;;;9.60;99.90;;;;;;5090441;28;20858;-70
2023/03/25 07:50:19;;;;;;;18.40;3.50;;;9.70;99.90;;;;;;5091337;28;20027;-71
2023/03/25 07:52:45;;;;;;;6.78;1.42;;;9.70;99.90;;;;;;5074969;28;20540;-69
2023/03/25 07:55:12;;;;;;;9.20;2.92;;;9.70;99.90;;;;;;5077789;28;20119;-71
2023/03/25 07:57:39;;;;;;;16.90;1.83;;;9.70;99.90;;;;;;5075234;28;20020;-72
2023/03/25 08:00:08;;;;;;;14.95;3.28;;;9.90;99.90;;;;;;5073034;28;20020;-71
2023/03/25 08:02:38;;;;;;;9.63;2.58;;;9.90;99.90;;;;;;5072242;28;20027;-72
2023/03/25 08:05:04;;;;;;;7.88;2.42;;;10.00;99.90;;;;;;5079313;28;20029;-70
2023/03/25 08:07:31;;;;;;;12.25;1.60;;;10.10;99.90;;;;;;5075389;28;20679;-70
2023/03/25 08:09:57;;;;;;;4.80;2.42;;;10.00;99.90;;;;;;5056624;28;20472;-69
2023/03/25 08:12:23;;;;;;;6.13;1.58;;;10.00;99.90;;;;;;5075051;28;20032;-71
2023/03/25 08:14:49;;;;;;;24.60;3.88;;;10.10;99.90;;;;;;5072999;28;20023;-71
2023/03/25 08:17:14;;;;;;;8.95;2.40;;;10.10;99.90;;;;;;5076846;28;20534;-71
2023/03/25 08:19:40;;;;;;;14.70;3.17;;;10.20;99.90;;;;;;5076833;28;20027;-70
2023/03/25 08:22:06;;;;;;;7.65;1.70;;;10.20;99.90;;;;;;5079319;28;20476;-71
2023/03/25 08:24:32;;;;;;;22.25;3.53;;;10.20;99.90;;;;;;5080195;28;20448;-71
2023/03/25 08:27:01;;;;;;;6.60;1.75;;;10.20;99.90;;;;;;5075368;28;20115;-73
2023/03/25 08:29:28;;;;;;;22.30;2.92;;;10.30;99.90;;;;;;5081533;28;20036;-70
2023/03/25 08:31:55;;;;;;;19.25;4.68;;;10.20;99.90;;;;;;5079955;28;20041;-71
2023/03/25 08:34:22;;;;;;;20.42;3.88;;;10.20;99.90;;;;;;5079722;28;20014;-71
2023/03/25 08:36:48;;;;;;;11.68;1.10;;;10.10;99.90;;;;;;5080839;28;20039;-70
2023/03/25 08:39:16;;;;;;;29.02;3.08;;;10.20;99.90;;;;;;5095294;28;20065;-70
2023/03/25 08:41:43;;;;;;;10.95;1.42;;;10.10;99.90;;;;;;5094809;28;20064;-71
2023/03/25 08:44:10;;;;;;;5.53;1.67;;;10.00;99.90;;;;;;5093800;28;20030;-71
2023/03/25 08:46:36;;;;;;;21.95;2.92;;;10.00;99.90;;;;;;5084624;28;20036;-71
2023/03/25 08:49:03;;;;;;;3.28;0.77;;;9.90;99.90;;;;;;5077137;28;20066;-73
2023/03/25 08:51:29;;;;;;;15.70;2.55;;;9.90;99.90;;;;;;5073891;28;20366;-71
2023/03/25 08:53:55;;;;;;;16.77;3.50;;;10.10;99.90;;;;;;5071254;28;20020;-71
2023/03/25 08:56:21;;;;;;;7.30;2.10;;;10.20;99.90;;;;;;5080975;28;20073;-72
2023/03/25 08:58:47;;;;;;;2.30;0.52;;;10.10;99.90;;;;;;5081274;28;20055;-71
2023/03/25 09:01:13;;;;;;;15.90;3.30;;;10.10;99.90;;;;;;5071885;28;20082;-73
2023/03/25 09:03:39;;;;;;;22.08;3.90;;;10.20;99.90;;;;;;5072558;28;20106;-72
2023/03/25 09:06:07;;;;;;;22.70;3.10;;;10.20;99.90;;;;;;5082638;28;20036;-71
2023/03/25 09:08:35;;;;;;;34.05;5.47;;;10.40;99.90;;;;;;5070426;28;20021;-71
2023/03/25 09:11:02;;;;;;;25.40;4.45;;;10.60;99.90;;;;;;5079619;28;20107;-72
2023/03/25 09:13:28;;;;;;;15.80;3.60;;;10.80;99.90;;;;;;5069517;28;20021;-71
2023/03/25 09:15:54;;;;;;;19.45;5.20;;;10.80;99.90;;;;;;5066434;28;20025;-71
2023/03/25 09:18:20;;;;;;;13.68;2.63;;;10.90;99.90;;;;;;5070398;28;20052;-71
2023/03/25 09:20:47;;;;;;;11.05;2.10;;;10.90;99.90;;;;;;5071970;28;20029;-70
2023/03/25 09:23:14;;;;;;;17.33;3.47;;;10.90;99.90;;;;;;5079290;28;20030;-73
2023/03/25 09:25:40;;;;;;;14.93;3.85;;;10.80;99.90;;;;;;5074302;28;20050;-69
2023/03/25 09:28:06;;;;;;;11.30;1.75;;;11.00;99.90;;;;;;5078168;28;20093;-69
2023/03/25 09:30:32;;;;;;;15.93;3.78;;;10.90;99.90;;;;;;5078958;28;20477;-69
2023/03/25 09:32:58;;;;;;;13.63;2.97;;;11.10;99.90;;;;;;5072316;28;20016;-72
2023/03/25 09:35:24;;;;;;;2.80;1.58;;;11.20;99.90;;;;;;5076223;28;20029;-70
2023/03/25 09:37:50;;;;;;;16.50;3.20;;;11.30;99.90;;;;;;5086553;28;20746;-69
2023/03/25 09:40:17;;;;;;;6.38;1.55;;;11.40;99.90;;;;;;5083822;28;20067;-69
2023/03/25 09:42:46;;;;;;;7.00;1.20;;;11.50;99.90;;;;;;5070917;28;20036;-69
2023/03/25 09:45:26;;;;;;;27.05;2.42;;;11.60;99.90;;;;;;5067279;28;20537;-69
2023/03/25 09:48:15;;;;;;;20.35;3.28;;;11.60;99.90;;;;;;5065275;28;20038;-71
2023/03/25 09:50:43;;;;;;;11.35;2.63;;;11.40;99.90;;;;;;5066328;28;20040;-69
2023/03/25 09:53:09;;;;;;;18.08;1.52;;;11.50;99.90;;;;;;5060688;28;20029;-69
2023/03/25 09:55:43;;;;;;;13.52;2.35;;;11.50;99.90;;;;;;5063327;28;20425;-68
2023/03/25 09:58:18;;;;;;;3.70;0.60;;;11.50;99.90;;;;;;5062312;28;20385;-71
2023/03/25 10:00:46;;;;;;;10.45;1.35;;;11.70;99.90;;;;;;5066117;28;20052;-71
2023/03/25 10:03:25;;;;;;;7.85;1.10;;;11.80;99.90;;;;;;5068540;28;20021;-69
2023/03/25 10:06:18;;;;;;;8.40;1.88;;;11.70;99.90;;;;;;5076570;28;20053;-69
2023/03/25 10:09:06;;;;;;;15.10;1.75;;;11.70;99.90;;;;;;5068535;28;20086;-68
2023/03/25 10:11:45;;;;;;;13.52;2.78;;;11.80;99.90;;;;;;5069303;28;20048;-68
2023/03/25 10:14:23;;;;;;;15.07;2.80;;;11.90;99.90;;;;;;5070185;28;20024;-69
2023/03/25 10:17:11;;;;;;;14.43;2.72;;;11.90;99.90;;;;;;5074298;28;20400;-68
2023/03/25 10:19:46;;;;;;;11.48;1.73;;;11.90;99.90;;;;;;5072010;28;20523;-70
2023/03/25 10:22:41;;;;;;;19.60;2.03;;;11.90;99.90;;;;;;5070966;28;20040;-70
2023/03/25 10:25:16;;;;;;;7.30;2.75;;;11.90;99.90;;;;;;5060915;28;20381;-70
2023/03/25 10:27:50;;;;;;;18.27;2.10;;;11.90;99.90;;;;;;5066198;28;20045;-71
2023/03/25 10:30:17;;;;;;;10.27;2.28;;;12.30;99.90;;;;;;5064695;28;20037;-69
2023/03/25 10:32:48;;;;;;;8.02;0.85;;;12.40;99.90;;;;;;5070330;28;20527;-69
2023/03/25 10:35:26;;;;;;;8.80;1.55;;;12.40;99.90;;;;;;5068517;28;20024;-70
2023/03/25 10:37:56;;;;;;;7.78;3.33;;;13.10;99.90;;;;;;5084892;28;20032;-69
2023/03/25 10:40:35;;;;;;;17.83;4.15;;;13.10;99.90;;;;;;5070042;28;20037;-68
2023/03/25 10:43:28;;;;;;;41.30;4.40;;;13.00;99.90;;;;;;5072686;28;20031;-68
2023/03/25 10:46:00;;;;;;;12.73;1.45;;;12.80;99.90;;;;;;5070289;28;20036;-68
2023/03/25 10:48:29;;;;;;;9.10;3.38;;;13.10;99.90;;;;;;5074540;28;20562;-68
2023/03/25 10:51:13;;;;;;;14.95;1.83;;;12.90;99.90;;;;;;5073983;28;20520;-69
2023/03/25 10:53:40;;;;;;;11.32;1.38;;;12.50;99.90;;;;;;5077716;28;20028;-69
2023/03/25 10:56:13;;;;;;;21.95;2.70;;;12.40;99.90;;;;;;5072006;28;20036;-70
2023/03/25 10:58:42;;;;;;;6.95;1.38;;;12.30;99.90;;;;;;5067488;28;20115;-69
2023/03/25 11:01:19;;;;;;;13.20;2.63;;;12.70;99.90;;;;;;5072220;28;20056;-69
2023/03/25 11:03:50;;;;;;;14.20;1.90;;;12.70;99.90;;;;;;5059686;28;20349;-69
2023/03/25 11:06:28;;;;;;;8.38;2.13;;;12.70;99.90;;;;;;5068829;28;20060;-69
2023/03/25 11:09:14;;;;;;;10.50;1.55;;;12.70;99.90;;;;;;5070616;28;20120;-70
2023/03/25 11:11:41;;;;;;;10.18;2.20;;;12.90;99.90;;;;;;5081479;28;20097;-69
2023/03/25 11:14:09;;;;;;;10.07;2.45;;;12.70;99.90;;;;;;5085735;28;20055;-69
2023/03/25 11:16:52;;;;;;;7.53;2.50;;;13.20;99.90;;;;;;5079416;28;20112;-69
2023/03/25 11:19:31;;;;;;;4.28;1.27;;;13.00;99.90;;;;;;5067633;28;20016;-69
2023/03/25 11:22:18;;;;;;;19.98;2.15;;;13.20;99.90;;;;;;5053919;28;20032;-70
2023/03/25 11:24:48;;;;;;;3.10;1.55;;;13.00;99.90;;;;;;5096920;28;20037;-69
2023/03/25 11:27:21;;;;;;;17.15;2.55;;;13.10;99.90;;;;;;5080087;28;20047;-69
2023/03/25 11:29:59;;;;;;;7.47;1.80;;;13.00;99.90;;;;;;5070222;28;20024;-69
2023/03/25 11:32:39;;;;;;;12.77;3.08;;;12.50;99.90;;;;;;5060243;28;20090;-69
2023/03/25 11:35:29;;;;;;;10.25;2.35;;;12.40;99.90;;;;;;5073580;28;20110;-69
2023/03/25 11:38:00;;;;;;;6.15;1.88;;;12.70;99.90;;;;;;5079348;28;20385;-70
2023/03/25 11:40:31;;;;;;;10.98;2.63;;;12.30;99.90;;;;;;5090673;28;20046;-69
2023/03/25 11:42:59;;;;;;;17.30;2.13;;;11.90;99.90;;;;;;5092536;28;20030;-69
2023/03/25 11:45:33;;;;;;;19.05;2.00;;;11.60;99.90;;;;;;5091623;28;20044;-70
2023/03/25 11:48:07;;;;;;;3.28;1.20;;;11.80;99.90;;;;;;5092275;28;20506;-70
2023/03/25 11:50:34;;;;;;;17.60;2.83;;;12.00;99.90;;;;;;5091470;28;20046;-70
2023/03/25 11:53:02;;;;;;;19.02;1.92;;;12.20;99.90;;;;;;5073561;28;20472;-70
2023/03/25 11:55:54;;;;;;;11.48;2.45;;;12.50;99.90;;;;;;5091285;28;20024;-70
2023/03/25 11:58:32;;;;;;;11.18;3.03;;;12.90;99.90;;;;;;5092090;28;20092;-69
2023/03/25 12:01:30;;;;;;;14.35;2.65;;;13.30;99.90;;;;;;5091836;28;20032;-68
2023/03/25 12:04:13;;;;;;;16.52;2.95;;;13.40;99.90;;;;;;5082362;28;20055;-71
2023/03/25 12:07:05;;;;;;;12.13;2.38;;;12.40;99.90;;;;;;5077784;28;20039;-70
2023/03/25 12:09:31;;;;;;;6.97;0.60;;;11.90;99.90;;;;;;5061687;28;20518;-70
2023/03/25 12:12:06;;;;;;;7.68;1.42;;;11.90;99.90;;;;;;5081926;28;20039;-69
2023/03/25 12:14:41;;;;;;;2.88;0.88;;;12.30;99.90;;;;;;5079489;28;20052;-70
2023/03/25 12:17:25;;;;;;;49.63;5.25;;;13.10;99.90;;;;;;5069935;28;20097;-70
2023/03/25 12:20:17;;;;;;;9.30;0.88;;;13.80;99.90;;;;;;5070382;28;20060;-70
2023/03/25 12:22:59;;;;;;;10.80;2.72;;;14.60;99.90;;;;;;5072906;28;20032;-70
2023/03/25 12:25:31;;;;;;;6.32;1.88;;;14.90;99.90;;;;;;5072337;28;20033;-70
2023/03/25 12:28:33;;;;;;;17.33;2.60;;;14.30;99.90;;;;;;5075628;28;20481;-70
2023/03/25 12:31:14;;;;;;;5.35;1.95;;;13.20;99.90;;;;;;5075211;28;20416;-70
2023/03/25 12:34:19;;;;;;;12.93;2.10;;;12.60;99.90;;;;;;5074114;28;20029;-70
2023/03/25 12:36:52;;;;;;;11.85;2.00;;;12.90;99.90;;;;;;5054879;28;20059;-70
2023/03/25 12:39:57;;;;;;;7.50;1.30;;;12.90;99.90;;;;;;5071070;28;20673;-70
2023/03/25 12:42:47;;;;;;;8.15;2.42;;;13.30;99.90;;;;;;5071059;28;20515;-70
2023/03/25 12:45:22;;;;;;;2.53;1.02;;;13.20;99.90;;;;;;5070674;28;20112;-70
2023/03/25 12:48:26;;;;;;;16.75;2.40;;;13.60;99.90;;;;;;5070909;28;20587;-70
2023/03/25 12:50:55;;;;;;;15.25;2.75;;;13.40;99.90;;;;;;5072291;28;20052;-72
2023/03/25 12:54:06;;;;;;;13.73;2.53;;;12.90;99.90;;;;;;5064038;28;20553;-70
2023/03/25 12:56:31;;;;;;;11.90;1.67;;;12.60;99.90;;;;;;5026127;28;20493;-73
2023/03/25 12:59:21;;;;;;;6.85;2.28;;;12.00;99.90;;;;;;5063284;28;20085;-72
2023/03/25 13:02:18;;;;;;;9.77;2.30;;;11.30;99.90;;;;;;5069997;28;20043;-71
2023/03/25 13:04:59;;;;;;;1.63;1.00;;;11.40;99.90;;;;;;5071512;28;20032;-73
2023/03/25 13:07:30;;;;;;;21.67;3.00;;;11.60;99.90;;;;;;5078087;28;20040;-71
2023/03/25 13:10:21;;;;;;;15.77;2.92;;;11.80;99.90;;;;;;5075779;28;20052;-70
2023/03/25 13:13:12;;;;;;;3.42;1.20;;;12.00;99.90;;;;;;5078311;28;20086;-71
2023/03/25 13:15:43;;;;;;;5.85;1.75;;;12.30;99.90;;;;;;5081369;28;20032;-72
2023/03/25 13:18:18;;;;;;;17.60;2.40;;;12.60;99.90;;;;;;5085237;28;20358;-72